This is the latest recevied weather packets stored in our database for station/object W0RMT-13. If no packets are shown the sender has not sent any weather packets the latest 10 day(s).
| Time | Temp. | Humidity | Pressure | Rain* | Wind** | Luminosity | Snow |
|---|---|---|---|---|---|---|---|
| 1778100009 | 1.67° C | 93% | 1019.4 hPa | 1.78 mm | - | 304 W/m² | - |
| 1778099339 | 1.67° C | 92% | 1019.4 hPa | 1.78 mm | - | 253 W/m² | - |
| 1778098729 | 1.67° C | 92% | 1019.4 hPa | 1.02 mm | - | 273 W/m² | - |
| 1778098087 | 1.11° C | 88% | 1019.4 hPa | 0.51 mm | - | 349 W/m² | - |
| 1778097363 | 1.11° C | 93% | 1019.8 hPa | 0.51 mm | - | 269 W/m² | - |
| 1778096758 | 1.11° C | 93% | 1019.8 hPa | 0.25 mm | - | 242 W/m² | - |
| 1778096137 | 1.67° C | 93% | 1019.4 hPa | 0 mm | - | 201 W/m² | - |
| 1778095418 | 1.67° C | 94% | 1019.8 hPa | 0 mm | - | 209 W/m² | - |
| 1778094798 | 2.22° C | 94% | 1019.8 hPa | 0 mm | - | 175 W/m² | - |
| 1778094123 | 1.67° C | 93% | 1020.2 hPa | 0 mm | - | 193 W/m² | - |
| 1778093475 | 1.67° C | 93% | 1019.8 hPa | 0 mm | - | 226 W/m² | - |
| 1778092790 | 1.11° C | 93% | 1020.2 hPa | 0 mm | - | 196 W/m² | - |
| 1778092177 | 0.56° C | 97% | 1020.2 hPa | 0 mm | - | 198 W/m² | - |
| 1778091513 | 0.56° C | 98% | 1020.2 hPa | 0 mm | - | 129 W/m² | - |
| 1778090853 | 0.56° C | 99% | 1020.5 hPa | 0 mm | - | 136 W/m² | - |
| 1778090235 | 0.56° C | 99% | 1020.2 hPa | 0 mm | - | 84 W/m² | - |
| 1778089618 | 0.56° C | 99% | 1020.2 hPa | 0 mm | - | 72 W/m² | - |
| 1778088937 | 0° C | 99% | 1020.2 hPa | 0 mm | - | 62 W/m² | - |
| 1778088305 | 0° C | 99% | 1020.2 hPa | 0 mm | - | 56 W/m² | - |
| 1778087644 | 0° C | 99% | 1020.2 hPa | 0 mm | - | 39 W/m² | - |
| 1778086979 | 0° C | 99% | 1019.8 hPa | 0 mm | - | 39 W/m² | - |
| 1778086293 | 0° C | 99% | 1019.8 hPa | 0 mm | - | 24 W/m² | - |
| 1778085658 | 0° C | 99% | 1019.8 hPa | 0 mm | - | 28 W/m² | - |
| 1778084958 | 0° C | 99% | 1019.4 hPa | 0 mm | - | 30 W/m² | - |
| 1778084349 | -0.56° C | 99% | 1019.4 hPa | 0 mm | - | 35 W/m² | - |
* Rain latest hour (hover to see other rain measurements)
** Current wind speed in m/s (hover to see current wind gust speed)